Time;durP1;ratioP1;P1;durP2;ratioP2;P2;SDS_P1;SDS_P2;PMS_P1;PMS_P2;Temp;Humidity;BMP_temperature;BMP_pressure;BME280_temperature;BME280_humidity;BME280_pressure;Samples;Min_cycle;Max_cycle;Signal;HPM_P1;HPM_P2
2024/04/11 00:01:39;;;;;;;7.10;3.60;;;;;;;11.23;59.00;101525.38;104061;1261;98736;-69
2024/04/11 00:04:08;;;;;;;6.90;3.50;;;;;;;11.23;59.08;101524.33;102780;1261;114917;-69
2024/04/11 00:06:37;;;;;;;4.90;2.90;;;;;;;11.23;58.97;101526.08;102670;1260;106828;-70
2024/04/11 00:09:04;;;;;;;6.10;3.30;;;;;;;11.22;58.93;101529.41;102514;1262;139171;-70
2024/04/11 00:11:31;;;;;;;9.40;3.10;;;;;;;11.21;58.96;101533.25;104068;1260;106953;-70
2024/04/11 00:13:59;;;;;;;6.10;2.90;;;;;;;11.19;58.96;101534.67;103939;1260;139203;-70
2024/04/11 00:16:26;;;;;;;5.80;2.90;;;;;;;11.18;59.05;101538.34;103997;1260;113364;-69
2024/04/11 00:18:53;;;;;;;7.70;2.60;;;;;;;11.16;58.90;101537.33;103973;1261;108123;-69
2024/04/11 00:21:19;;;;;;;6.40;2.80;;;;;;;11.17;58.89;101536.96;103163;1260;1003254;-69
2024/04/11 00:23:48;;;;;;;6.10;2.60;;;;;;;11.16;58.91;101536.45;103918;1260;108233;-69
2024/04/11 00:26:17;;;;;;;5.40;3.10;;;;;;;11.13;58.79;101532.67;103904;1260;139188;-69
2024/04/11 00:28:44;;;;;;;6.20;2.40;;;;;;;11.13;58.74;101537.02;102676;1261;114752;-70
2024/04/11 00:31:11;;;;;;;6.70;2.70;;;;;;;11.11;58.56;101533.90;102751;1265;108561;-70
2024/04/11 00:33:54;;;;;;;5.30;2.30;;;;;;;11.08;58.52;101530.80;102785;1260;139694;-70
2024/04/11 00:36:22;;;;;;;5.20;3.00;;;;;;;11.04;58.46;101531.39;102582;1261;107441;-71
2024/04/11 00:38:50;;;;;;;8.60;2.50;;;;;;;11.00;58.54;101533.36;103945;1260;139086;-68
2024/04/11 00:41:19;;;;;;;5.90;2.40;;;;;;;10.95;58.53;101526.83;104033;1260;114277;-68
2024/04/11 00:43:47;;;;;;;7.90;2.40;;;;;;;10.90;58.30;101529.14;102664;1261;139218;-70
2024/04/11 00:46:17;;;;;;;8.50;2.30;;;;;;;10.85;58.28;101527.80;103624;1260;101059;-70
2024/04/11 00:48:44;;;;;;;6.20;2.40;;;;;;;10.82;58.29;101528.73;104083;1260;107327;-69
2024/04/11 00:51:12;;;;;;;4.30;2.10;;;;;;;10.79;58.40;101530.17;103983;1262;139049;-69
2024/04/11 00:53:40;;;;;;;5.60;2.30;;;;;;;10.76;58.28;101530.71;103187;1262;113989;-69
2024/04/11 00:56:08;;;;;;;8.70;2.40;;;;;;;10.72;58.21;101529.02;102368;1263;139453;-70
2024/04/11 00:58:38;;;;;;;8.00;2.50;;;;;;;10.67;58.30;101531.69;102585;1260;100510;-69
2024/04/11 01:01:06;;;;;;;4.80;2.40;;;;;;;10.65;58.36;101531.38;102617;1261;108657;-69
2024/04/11 01:03:34;;;;;;;5.20;2.10;;;;;;;10.60;58.24;101535.96;103917;1262;140835;-69
2024/04/11 01:06:03;;;;;;;8.90;2.60;;;;;;;10.56;58.32;101537.20;104085;1261;112722;-70
2024/04/11 01:08:30;;;;;;;7.20;2.30;;;;;;;10.54;58.39;101541.76;103250;1262;139502;-70
2024/04/11 01:10:57;;;;;;;6.60;2.70;;;;;;;10.50;58.45;101545.11;102699;1265;100410;-70
2024/04/11 01:13:24;;;;;;;6.10;2.20;;;;;;;10.45;58.47;101545.35;102498;1265;107954;-70
2024/04/11 01:15:53;;;;;;;5.50;2.20;;;;;;;10.41;58.53;101543.99;103976;1260;139697;-70
2024/04/11 01:18:20;;;;;;;5.30;2.00;;;;;;;10.37;58.69;101549.94;103081;1265;115255;-70
2024/04/11 01:20:49;;;;;;;7.80;2.50;;;;;;;10.34;58.62;101550.85;103298;1265;139681;-69
2024/04/11 01:23:16;;;;;;;6.40;2.70;;;;;;;10.31;58.88;101546.70;104105;1260;99043;-69
2024/04/11 01:25:44;;;;;;;7.00;2.60;;;;;;;10.30;59.00;101549.15;104080;1260;109108;-69
2024/04/11 01:28:11;;;;;;;5.30;2.60;;;;;;;10.27;59.02;101548.66;103986;1260;100598;-70
2024/04/11 01:30:38;;;;;;;5.90;2.40;;;;;;;10.26;59.00;101550.41;104006;1262;114122;-69
2024/04/11 01:33:09;;;;;;;4.00;2.30;;;;;;;10.24;59.12;101553.39;103882;1263;139204;-69
2024/04/11 01:35:37;;;;;;;8.10;2.50;;;;;;;10.22;59.30;101557.04;104020;1260;99136;-69
2024/04/11 01:38:05;;;;;;;5.40;2.30;;;;;;;10.21;59.25;101554.09;103882;1261;139772;-69
2024/04/11 01:40:34;;;;;;;5.00;2.60;;;;;;;10.20;59.33;101550.43;103308;1264;100560;-70
2024/04/11 01:43:02;;;;;;;7.60;2.60;;;;;;;10.19;59.49;101553.21;104037;1260;114300;-69
2024/04/11 01:45:30;;;;;;;8.00;2.60;;;;;;;10.17;59.47;101557.92;102574;1262;139208;-69
2024/04/11 01:47:57;;;;;;;8.50;2.80;;;;;;;10.15;59.51;101558.64;104022;1260;98856;-70
2024/04/11 01:50:24;;;;;;;7.80;2.70;;;;;;;10.13;59.55;101561.10;103874;1261;139735;-70
2024/04/11 01:52:52;;;;;;;5.10;2.70;;;;;;;10.11;59.68;101560.95;103948;1259;99609;-70
2024/04/11 01:55:18;;;;;;;6.00;2.80;;;;;;;10.11;59.72;101562.86;103814;1264;114168;-69
2024/04/11 01:57:45;;;;;;;7.60;2.80;;;;;;;10.10;59.76;101566.19;103150;1265;139091;-69
2024/04/11 02:00:15;;;;;;;4.20;2.40;;;;;;;10.10;59.78;101567.57;102487;1262;100433;-69
2024/04/11 02:02:43;;;;;;;6.30;2.90;;;;;;;10.09;59.82;101567.92;103862;1262;139254;-69
2024/04/11 02:05:10;;;;;;;7.30;3.00;;;;;;;10.06;59.84;101566.21;103948;1260;98642;-70
2024/04/11 02:07:38;;;;;;;7.40;3.20;;;;;;;10.07;60.04;101568.98;102715;1262;114417;-68
2024/04/11 02:10:06;;;;;;;7.70;3.00;;;;;;;10.05;59.98;101568.13;102670;1262;138857;-70
2024/04/11 02:12:33;;;;;;;8.80;2.90;;;;;;;10.04;60.09;101568.65;103164;1262;100518;-68
2024/04/11 02:15:00;;;;;;;6.10;3.30;;;;;;;10.01;59.97;101569.71;103998;1262;139302;-69
2024/04/11 02:17:28;;;;;;;6.40;2.70;;;;;;;10.01;60.15;101574.76;102523;1265;100469;-70
2024/04/11 02:19:55;;;;;;;7.10;2.70;;;;;;;10.00;60.03;101577.55;103913;1262;139441;-69
2024/04/11 02:22:22;;;;;;;7.70;3.40;;;;;;;9.99;60.22;101580.86;103973;1261;106188;-70
2024/04/11 02:24:48;;;;;;;10.10;2.80;;;;;;;9.98;60.35;101585.04;104049;1260;98696;-69
2024/04/11 02:27:16;;;;;;;7.20;2.90;;;;;;;9.96;60.53;101589.05;103141;1261;140329;-69
2024/04/11 02:29:42;;;;;;;5.90;3.30;;;;;;;9.94;60.59;101593.24;103996;1262;98752;-69
2024/04/11 02:32:09;;;;;;;5.90;3.10;;;;;;;9.93;60.71;101595.34;103405;1262;138930;-69
2024/04/11 02:34:36;;;;;;;7.10;3.70;;;;;;;9.94;60.88;101596.90;103991;1262;108270;-70
2024/04/11 02:37:04;;;;;;;7.00;3.50;;;;;;;9.93;60.95;101599.16;104056;1259;98795;-69
2024/04/11 02:39:30;;;;;;;6.50;4.00;;;;;;;9.93;61.21;101598.13;103903;1261;138671;-69
2024/04/11 02:41:57;;;;;;;7.20;4.30;;;;;;;9.92;61.40;101597.79;103640;1262;98702;-69
2024/04/11 02:44:24;;;;;;;8.10;4.90;;;;;;;9.89;61.67;101593.30;100896;1262;1003146;-70
2024/04/11 02:46:51;;;;;;;8.30;4.40;;;;;;;9.89;61.99;101591.90;103161;1262;108030;-69
2024/04/11 02:49:18;;;;;;;9.30;4.60;;;;;;;9.88;62.18;101592.77;102145;1262;1003182;-69
2024/04/11 02:51:46;;;;;;;9.40;5.10;;;;;;;9.87;62.50;101595.55;103523;1262;138971;-69
2024/04/11 02:54:13;;;;;;;9.30;5.20;;;;;;;9.84;62.60;101591.40;102875;1261;100560;-70
2024/04/11 02:56:41;;;;;;;11.30;4.90;;;;;;;9.83;62.76;101595.75;103864;1260;138962;-69
2024/04/11 02:59:11;;;;;;;8.90;4.60;;;;;;;9.81;62.87;101597.85;103641;1263;109531;-68
2024/04/11 03:01:38;;;;;;;13.10;5.30;;;;;;;9.79;63.04;101603.95;102860;1261;100568;-70
2024/04/11 03:04:05;;;;;;;9.80;5.00;;;;;;;9.76;63.10;101595.98;103856;1262;140184;-70
2024/04/11 03:06:32;;;;;;;11.00;5.40;;;;;;;9.72;63.33;101597.42;104003;1263;98726;-71
2024/04/11 03:09:00;;;;;;;9.50;5.00;;;;;;;9.66;63.45;101596.39;102497;1262;139037;-70
2024/04/11 03:11:28;;;;;;;11.30;5.20;;;;;;;9.63;63.50;101601.45;103514;1264;107247;-70
2024/04/11 03:13:58;;;;;;;11.90;4.90;;;;;;;9.57;63.48;101604.11;102556;1262;139347;-71
2024/04/11 03:16:27;;;;;;;8.70;4.20;;;;;;;9.53;63.47;101611.60;101522;1262;1003204;-69
2024/04/11 03:18:56;;;;;;;9.70;4.50;;;;;;;9.48;63.55;101613.02;102713;1265;100536;-69
2024/04/11 03:21:23;;;;;;;8.40;5.20;;;;;;;9.42;63.62;101612.70;102459;1262;139340;-71
2024/04/11 03:23:51;;;;;;;11.70;5.00;;;;;;;9.40;63.71;101616.02;102546;1262;107570;-71
2024/04/11 03:26:18;;;;;;;10.20;5.10;;;;;;;9.37;63.87;101613.79;103750;1262;139181;-68
2024/04/11 03:28:45;;;;;;;9.90;5.70;;;;;;;9.31;63.83;101610.84;104046;1262;107979;-69
2024/04/11 03:31:13;;;;;;;11.20;6.50;;;;;;;9.29;64.07;101618.50;102797;1262;100522;-70
2024/04/11 03:33:40;;;;;;;10.90;6.30;;;;;;;9.28;64.22;101624.74;103957;1261;139154;-70
2024/04/11 03:36:10;;;;;;;11.30;6.90;;;;;;;9.27;64.44;101628.56;103308;1261;107049;-69
2024/04/11 03:38:38;;;;;;;11.10;6.80;;;;;;;9.25;64.47;101627.37;102745;1260;138940;-70
2024/04/11 03:41:07;;;;;;;15.80;7.80;;;;;;;9.23;64.46;101627.38;103841;1261;107331;-69
2024/04/11 03:43:35;;;;;;;9.70;6.50;;;;;;;9.22;64.46;101619.58;103591;1261;99191;-70
2024/04/11 03:46:09;;;;;;;12.60;7.00;;;;;;;9.20;64.40;101623.58;102721;1262;138610;-69
2024/04/11 03:48:36;;;;;;;14.90;7.00;;;;;;;9.20;64.46;101628.79;103982;1262;107754;-70
2024/04/11 03:51:13;;;;;;;12.20;6.20;;;;;;;9.18;64.57;101626.02;102847;1262;139486;-71
2024/04/11 03:53:39;;;;;;;;;;;;;;;9.18;64.71;101629.16;102581;1260;106936;-70
2024/04/11 03:56:09;;;;;;;11.30;6.30;;;;;;;9.15;64.82;101629.15;103868;1260;125376;-70
2024/04/11 03:58:37;;;;;;;12.00;6.00;;;;;;;9.16;64.84;101634.19;103705;1262;113988;-69
2024/04/11 04:01:05;;;;;;;13.20;6.20;;;;;;;9.16;64.94;101634.70;102616;1265;108131;-69
2024/04/11 04:03:32;;;;;;;10.80;5.40;;;;;;;9.18;64.92;101637.14;102514;1262;139008;-70
2024/04/11 04:05:59;;;;;;;10.30;5.50;;;;;;;9.20;64.83;101635.55;103950;1262;107987;-70
2024/04/11 04:08:28;;;;;;;9.10;5.10;;;;;;;9.21;64.61;101634.16;103848;1261;139099;-70
2024/04/11 04:10:55;;;;;;;8.50;5.10;;;;;;;9.23;64.55;101634.50;103924;1261;113337;-70
2024/04/11 04:13:22;;;;;;;12.50;5.30;;;;;;;9.25;64.26;101637.44;102865;1264;108450;-69
2024/04/11 04:15:49;;;;;;;12.70;5.20;;;;;;;9.28;64.08;101635.16;103869;1259;139798;-70
2024/04/11 04:18:16;;;;;;;8.60;4.70;;;;;;;9.33;64.22;101636.70;102600;1262;108320;-69
2024/04/11 04:20:44;;;;;;;9.60;5.30;;;;;;;9.38;63.96;101633.39;102681;1262;138866;-69
2024/04/11 04:23:11;;;;;;;9.20;4.90;;;;;;;9.44;63.79;101639.41;103976;1261;113209;-69
2024/04/11 04:25:38;;;;;;;10.10;4.80;;;;;;;9.55;63.61;101641.45;103961;1259;109198;-68
2024/04/11 04:28:08;;;;;;;12.10;4.50;;;;;;;9.74;63.51;101644.64;103889;1261;139996;-68
2024/04/11 04:30:34;;;;;;;11.30;4.50;;;;;;;10.06;63.12;101642.84;102836;1260;107939;-68
2024/04/11 04:33:02;;;;;;;12.30;4.20;;;;;;;10.46;62.66;101637.48;102410;1265;139435;-69
2024/04/11 04:35:30;;;;;;;9.40;4.80;;;;;;;10.95;62.10;101634.00;102645;1262;113688;-68
2024/04/11 04:37:57;;;;;;;11.70;4.40;;;;;;;11.49;61.49;101634.38;102600;1264;139467;-71
2024/04/11 04:40:25;;;;;;;12.00;4.60;;;;;;;12.12;60.44;101640.25;102622;1262;101100;-71
2024/04/11 04:42:52;;;;;;;13.50;4.30;;;;;;;12.77;59.24;101637.52;103155;1261;108088;-71
2024/04/11 04:45:20;;;;;;;10.60;4.20;;;;;;;13.44;57.99;101639.15;102850;1264;139646;-70
2024/04/11 04:47:47;;;;;;;7.40;3.90;;;;;;;14.11;56.63;101637.22;103747;1265;113396;-69
2024/04/11 04:50:14;;;;;;;8.60;3.40;;;;;;;14.79;55.10;101634.09;103286;1265;138966;-70
2024/04/11 04:52:43;;;;;;;9.00;3.70;;;;;;;15.49;53.77;101636.98;103896;1261;100042;-70
2024/04/11 04:55:10;;;;;;;6.50;3.00;;;;;;;16.24;52.57;101637.92;103026;1265;107960;-70
2024/04/11 04:57:37;;;;;;;8.80;4.10;;;;;;;16.98;51.25;101633.97;103109;1261;139259;-70
2024/04/11 05:00:13;;;;;;;6.90;3.40;;;;;;;17.80;50.08;101638.70;104026;1262;113714;-69
2024/04/11 05:02:40;;;;;;;7.30;3.40;;;;;;;18.73;48.47;101635.52;103803;1262;138425;-73
2024/04/11 05:05:11;;;;;;;11.10;3.50;;;;;;;19.51;47.10;101630.40;102889;1265;102174;-72
2024/04/11 05:07:40;;;;;;;5.70;3.50;;;;;;;20.31;45.39;101631.25;102735;1261;107561;-70
2024/04/11 05:10:08;;;;;;;7.50;3.30;;;;;;;21.11;44.11;101630.63;102502;1261;138247;-70
2024/04/11 05:12:43;;;;;;;12.30;3.40;;;;;;;21.82;42.85;101628.43;103073;1262;116010;-74
2024/04/11 05:15:12;;;;;;;6.00;3.20;;;;;;;22.64;41.63;101627.14;103445;1261;138562;-73
2024/04/11 05:17:41;;;;;;;6.60;3.10;;;;;;;23.51;40.45;101628.11;104056;1263;98711;-75
2024/04/11 05:20:17;;;;;;;10.10;3.80;;;;;;;24.30;39.19;101629.09;103892;1262;138589;-74
2024/04/11 05:22:46;;;;;;;8.40;3.40;;;;;;;25.15;37.90;101626.97;102728;1265;106078;-72
2024/04/11 05:25:15;;;;;;;5.40;2.70;;;;;;;25.86;36.62;101632.96;103028;1262;113891;-85
2024/04/11 05:27:42;;;;;;;7.50;3.10;;;;;;;26.62;35.63;101630.25;102813;1264;139229;-86
2024/04/11 05:30:11;;;;;;;8.30;2.90;;;;;;;27.33;34.36;101628.13;102512;1263;100545;-86
2024/04/11 05:32:39;;;;;;;7.20;2.60;;;;;;;28.10;33.78;101634.73;102812;1264;137789;-85
2024/04/11 05:35:09;;;;;;;6.00;3.10;;;;;;;28.87;32.72;101632.55;103893;1262;98637;-84
2024/04/11 05:37:36;;;;;;;6.10;3.10;;;;;;;29.61;31.60;101641.04;102716;1262;113777;-79
2024/04/11 05:40:05;;;;;;;6.80;2.50;;;;;;;30.33;30.79;101641.17;102351;1265;139247;-77
2024/04/11 05:42:32;;;;;;;6.40;2.90;;;;;;;31.08;29.96;101635.63;102495;1264;100514;-79
2024/04/11 05:44:58;;;;;;;6.80;2.50;;;;;;;31.79;29.02;101645.20;102362;1265;139009;-79
2024/04/11 05:47:26;;;;;;;7.20;3.00;;;;;;;32.38;28.39;101643.75;102447;1262;100542;-79
2024/04/11 05:49:53;;;;;;;7.60;2.40;;;;;;;33.05;27.53;101646.61;102335;1265;138575;-79
2024/04/11 05:52:21;;;;;;;6.30;2.30;;;;;;;33.67;26.72;101648.52;102419;1265;101973;-79
2024/04/11 05:54:49;;;;;;;5.80;2.60;;;;;;;34.20;25.82;101651.91;102476;1265;100408;-79
2024/04/11 05:57:16;;;;;;;5.50;2.40;;;;;;;34.58;24.92;101654.55;102341;1262;138607;-80
2024/04/11 05:59:45;;;;;;;9.70;3.20;;;;;;;34.95;24.37;101650.00;102441;1265;100595;-79
2024/04/11 06:02:13;;;;;;;6.50;2.20;;;;;;;35.28;23.58;101655.51;102321;1262;138605;-79
2024/04/11 06:04:41;;;;;;;6.00;2.60;;;;;;;35.61;23.29;101659.63;102679;1265;109807;-78
2024/04/11 06:07:09;;;;;;;5.30;2.40;;;;;;;36.02;22.88;101661.42;102437;1265;100419;-78
2024/04/11 06:09:36;;;;;;;7.40;2.60;;;;;;;36.42;22.36;101660.70;102888;1259;139025;-77
2024/04/11 06:12:03;;;;;;;6.90;2.60;;;;;;;36.77;21.74;101666.37;102947;1262;100507;-77
2024/04/11 06:14:30;;;;;;;8.80;3.00;;;;;;;37.11;21.45;101663.67;102342;1263;138362;-77
2024/04/11 06:16:58;;;;;;;9.30;2.70;;;;;;;37.49;21.22;101661.84;102467;1261;100530;-78
2024/04/11 06:19:26;;;;;;;5.80;2.20;;;;;;;37.88;20.54;101664.29;102949;1263;100390;-78
2024/04/11 06:21:57;;;;;;;5.70;2.20;;;;;;;38.20;20.20;101667.55;102288;1266;138433;-78
2024/04/11 06:24:25;;;;;;;7.70;3.10;;;;;;;38.23;19.86;101672.48;102357;1268;100535;-79
2024/04/11 06:26:52;;;;;;;7.50;2.70;;;;;;;38.36;19.77;101672.00;103037;1262;139090;-78
2024/04/11 06:29:22;;;;;;;8.40;4.10;;;;;;;38.47;19.32;101674.86;102516;1265;100678;-78
2024/04/11 06:31:49;;;;;;;5.70;2.80;;;;;;;38.48;18.99;101676.59;102661;1262;138784;-77
2024/04/11 06:34:17;;;;;;;5.40;2.10;;;;;;;38.55;18.64;101676.76;102640;1265;100955;-78
2024/04/11 06:36:49;;;;;;;6.40;2.90;;;;;;;38.78;18.72;101680.14;104060;1265;98437;-79
2024/04/11 06:39:17;;;;;;;6.50;3.20;;;;;;;39.08;18.20;101677.98;102901;1261;138451;-77
2024/04/11 06:41:43;;;;;;;4.80;2.10;;;;;;;39.32;17.99;101680.58;104019;1263;100236;-80
2024/04/11 06:44:12;;;;;;;8.40;3.20;;;;;;;39.45;17.89;101683.34;103065;1265;138773;-78
2024/04/11 06:46:44;;;;;;;5.70;3.30;;;;;;;39.43;17.40;101683.89;102500;1264;100525;-78
2024/04/11 06:49:12;;;;;;;3.80;2.10;;;;;;;39.52;16.91;101687.23;102537;1265;100523;-80
2024/04/11 06:51:39;;;;;;;7.00;3.30;;;;;;;39.65;17.32;101685.33;102430;1264;138296;-79
2024/04/11 06:54:09;;;;;;;9.40;3.50;;;;;;;39.87;16.97;101680.67;102477;1261;100616;-80
2024/04/11 06:56:36;;;;;;;7.30;2.40;;;;;;;40.05;16.69;101684.01;102392;1265;138391;-77
2024/04/11 06:59:10;;;;;;;4.70;2.00;;;;;;;40.26;16.36;101684.98;102447;1265;100680;-77
2024/04/11 07:01:39;;;;;;;5.20;2.10;;;;;;;40.48;16.14;101685.63;102507;1265;100548;-76
2024/04/11 07:04:09;;;;;;;4.70;2.10;;;;;;;40.64;15.79;101681.66;102581;1264;107056;-77
2024/04/11 07:06:38;;;;;;;7.20;2.20;;;;;;;40.85;15.93;101682.05;104020;1265;100235;-76
2024/04/11 07:09:11;;;;;;;4.40;2.10;;;;;;;40.95;15.59;101684.05;103863;1265;139681;-76
2024/04/11 07:11:41;;;;;;;5.50;2.50;;;;;;;40.83;15.22;101684.02;103267;1262;101279;-78
2024/04/11 07:14:11;;;;;;;5.30;2.40;;;;;;;40.64;15.22;101682.91;102420;1266;138444;-78
2024/04/11 07:16:44;;;;;;;3.50;2.30;;;;;;;40.44;15.01;101681.25;102805;1265;106600;-79
2024/04/11 07:19:12;;;;;;;6.40;2.30;;;;;;;40.45;14.82;101680.88;102832;1263;100570;-75
2024/04/11 07:21:39;;;;;;;6.50;1.90;;;;;;;40.25;14.65;101683.38;102427;1265;139708;-79
2024/04/11 07:24:07;;;;;;;10.70;3.00;;;;;;;40.25;14.95;101678.30;102614;1261;102185;-77
2024/04/11 07:26:38;;;;;;;4.90;2.50;;;;;;;40.38;15.34;101679.61;102492;1261;138455;-79
2024/04/11 07:29:08;;;;;;;7.10;2.50;;;;;;;40.40;14.89;101683.23;102599;1265;105151;-79
2024/04/11 07:31:39;;;;;;;8.90;2.50;;;;;;;40.09;14.33;101681.98;102530;1264;100540;-78
2024/04/11 07:34:07;;;;;;;5.60;2.30;;;;;;;39.64;14.22;101687.58;102461;1262;138431;-78
2024/04/11 07:36:39;;;;;;;6.70;3.10;;;;;;;39.19;14.49;101693.39;102659;1265;100541;-78
2024/04/11 07:39:08;;;;;;;5.80;2.10;;;;;;;38.95;15.16;101694.01;102394;1265;138332;-77
2024/04/11 07:41:45;;;;;;;5.90;2.80;;;;;;;38.92;14.97;101678.46;102598;1265;106834;-75
2024/04/11 07:44:17;;;;;;;6.60;2.30;;;;;;;38.60;14.31;101688.88;102447;1265;139308;-77
2024/04/11 07:46:44;;;;;;;7.60;2.70;;;;;;;38.22;14.58;101691.70;102589;1262;100634;-78
2024/04/11 07:49:26;;;;;;;4.60;2.00;;;;;;;37.81;14.92;101684.86;104044;1260;100066;-78
2024/04/11 07:51:53;;;;;;;6.20;1.90;;;;;;;37.68;15.32;101684.08;103900;1261;139708;-77
2024/04/11 07:54:22;;;;;;;5.20;2.20;;;;;;;37.83;15.46;101680.83;104010;1265;106231;-77
2024/04/11 07:57:03;;;;;;;5.60;1.90;;;;;;;37.89;15.20;101677.80;102725;1262;138931;-80
2024/04/11 07:59:33;;;;;;;5.80;2.30;;;;;;;38.08;15.57;101680.23;102576;1260;100536;-76
2024/04/11 08:02:00;;;;;;;5.10;3.10;;;;;;;38.42;15.58;101684.34;102331;1265;139123;-75
2024/04/11 08:04:27;;;;;;;8.10;3.10;;;;;;;38.53;15.10;101683.16;102400;1265;100525;-76
2024/04/11 08:06:54;;;;;;;8.30;3.40;;;;;;;38.28;14.87;101686.35;102529;1261;113987;-76
2024/04/11 08:09:21;;;;;;;5.40;2.10;;;;;;;37.91;14.92;101683.34;102386;1265;138621;-76
2024/04/11 08:11:51;;;;;;;11.30;2.10;;;;;;;37.94;15.10;101689.08;102492;1265;100395;-74
2024/04/11 08:14:18;;;;;;;4.20;1.90;;;;;;;38.16;15.38;101690.52;103920;1264;138729;-75
2024/04/11 08:16:47;;;;;;;5.80;2.20;;;;;;;38.10;14.68;101683.62;103348;1265;99500;-75
2024/04/11 08:19:17;;;;;;;7.30;2.90;;;;;;;37.67;14.95;101689.77;102592;1266;105346;-76
2024/04/11 08:21:44;;;;;;;4.70;2.00;;;;;;;37.38;15.11;101689.55;102277;1265;138834;-77
2024/04/11 08:24:11;;;;;;;6.00;2.50;;;;;;;37.27;15.21;101686.17;102442;1265;99196;-72
2024/04/11 08:26:38;;;;;;;4.30;2.00;;;;;;;37.25;15.41;101682.70;102388;1275;138184;-81
2024/04/11 08:29:05;;;;;;;6.50;3.40;;;;;;;37.38;15.37;101678.88;102583;1260;101026;-80
2024/04/11 08:31:32;;;;;;;7.00;2.00;;;;;;;37.23;15.25;101680.55;102752;1261;106539;-73
2024/04/11 08:33:59;;;;;;;4.90;2.00;;;;;;;36.98;15.26;101686.81;102606;1275;138262;-74
2024/04/11 08:36:28;;;;;;;7.70;2.10;;;;;;;36.83;15.43;101684.92;102749;1266;100528;-72
2024/04/11 08:38:56;;;;;;;5.40;1.80;;;;;;;36.86;15.67;101682.75;102448;1260;138478;-72
2024/04/11 08:41:25;;;;;;;4.80;2.10;;;;;;;36.83;15.29;101679.67;102509;1261;101615;-74
2024/04/11 08:43:56;;;;;;;4.40;2.10;;;;;;;36.66;15.41;101684.58;102392;1267;138599;-75
2024/04/11 08:46:24;;;;;;;3.80;1.70;;;;;;;36.55;15.20;101684.85;102506;1260;100513;-76
2024/04/11 08:48:52;;;;;;;6.70;1.80;;;;;;;36.46;15.17;101683.89;102581;1264;100531;-75
2024/04/11 08:51:23;;;;;;;5.30;1.70;;;;;;;36.33;15.20;101683.27;102326;1265;139818;-77
2024/04/11 08:53:54;;;;;;;3.60;1.80;;;;;;;36.28;15.27;101680.14;102440;1265;100633;-76
2024/04/11 08:56:30;;;;;;;4.10;2.10;;;;;;;36.15;15.31;101675.11;102511;1264;138356;-77
2024/04/11 08:58:58;;;;;;;3.90;1.80;;;;;;;36.05;15.38;101670.13;102592;1266;100534;-76
2024/04/11 09:01:26;;;;;;;4.80;2.30;;;;;;;36.17;15.68;101667.63;102645;1267;100507;-77
2024/04/11 09:03:53;;;;;;;4.50;1.90;;;;;;;36.44;15.75;101671.29;102475;1265;139000;-77
2024/04/11 09:06:26;;;;;;;5.80;1.90;;;;;;;36.64;15.60;101668.17;102575;1266;100524;-78
2024/04/11 09:08:53;;;;;;;3.90;1.40;;;;;;;36.84;15.48;101670.33;102434;1265;138224;-77
2024/04/11 09:11:22;;;;;;;4.60;1.90;;;;;;;36.96;15.51;101670.80;102519;1266;100520;-76
2024/04/11 09:13:53;;;;;;;4.90;1.70;;;;;;;37.04;15.31;101666.57;102475;1265;139061;-77
2024/04/11 09:16:26;;;;;;;4.40;1.90;;;;;;;36.97;15.17;101668.44;102580;1265;100562;-78
2024/04/11 09:19:04;;;;;;;3.70;1.70;;;;;;;36.44;15.11;101660.64;102628;1265;100535;-75
2024/04/11 09:21:31;;;;;;;7.10;2.30;;;;;;;36.00;15.45;101661.11;102520;1264;138193;-75
2024/04/11 09:23:58;;;;;;;3.50;1.70;;;;;;;35.71;15.42;101664.30;102609;1260;100642;-76
2024/04/11 09:26:29;;;;;;;5.20;1.60;;;;;;;35.63;15.81;101659.68;102522;1266;138883;-75
2024/04/11 09:28:56;;;;;;;3.30;1.60;;;;;;;35.60;15.71;101657.49;102566;1265;100521;-75
2024/04/11 09:31:24;;;;;;;4.30;1.70;;;;;;;35.28;15.80;101658.73;102609;1260;100524;-75
2024/04/11 09:33:54;;;;;;;5.70;2.00;;;;;;;35.35;16.01;101649.96;102486;1265;139039;-75
2024/04/11 09:36:27;;;;;;;4.40;1.90;;;;;;;35.17;15.52;101657.95;102669;1261;100748;-75
2024/04/11 09:39:05;;;;;;;3.30;1.60;;;;;;;35.02;15.64;101654.53;102718;1264;138400;-75
2024/04/11 09:41:32;;;;;;;5.10;1.90;;;;;;;35.15;15.50;101649.02;102535;1262;100540;-75
2024/04/11 09:44:02;;;;;;;7.40;1.90;;;;;;;34.92;15.38;101650.42;102425;1265;138442;-74
2024/04/11 09:46:34;;;;;;;6.30;1.80;;;;;;;34.71;15.75;101651.83;102619;1266;105357;-75
2024/04/11 09:49:01;;;;;;;4.50;1.70;;;;;;;34.73;15.81;101642.80;102558;1266;100666;-75
2024/04/11 09:51:31;;;;;;;5.20;1.70;;;;;;;34.84;16.09;101644.23;103498;1260;138917;-75
2024/04/11 09:54:03;;;;;;;5.50;2.00;;;;;;;34.96;15.74;101638.39;104072;1261;101655;-74
2024/04/11 09:56:31;;;;;;;4.90;2.00;;;;;;;34.76;15.68;101636.16;102839;1265;138453;-74
2024/04/11 09:59:00;;;;;;;6.70;1.80;;;;;;;34.72;15.88;101636.00;102401;1266;106540;-75
2024/04/11 10:01:31;;;;;;;4.30;1.40;;;;;;;34.84;15.84;101633.55;102404;1267;101277;-74
2024/04/11 10:04:00;;;;;;;5.40;1.80;;;;;;;34.98;16.10;101631.29;102400;1260;138381;-75
2024/04/11 10:06:30;;;;;;;4.80;1.90;;;;;;;35.20;15.99;101625.34;102886;1261;100525;-74
2024/04/11 10:09:11;;;;;;;4.10;1.70;;;;;;;35.06;15.54;101629.56;102479;1261;138650;-74
2024/04/11 10:11:43;;;;;;;2.80;1.50;;;;;;;34.93;15.48;101632.52;102545;1266;105863;-75
2024/04/11 10:14:21;;;;;;;7.20;1.50;;;;;;;34.82;15.57;101630.88;102556;1261;139452;-66
2024/04/11 10:16:51;;;;;;;4.50;1.60;;;;;;;34.79;15.67;101632.30;103342;1261;103289;-65
2024/04/11 10:19:31;;;;;;;2.50;1.30;;;;;;;34.70;15.70;101630.27;103265;1260;100868;-67
2024/04/11 10:22:05;;;;;;;5.70;1.80;;;;;;;34.69;15.91;101630.24;102458;1261;138144;-66
2024/04/11 10:24:34;;;;;;;5.20;2.10;;;;;;;34.78;15.81;101630.36;103660;1261;105784;-68
2024/04/11 10:27:10;;;;;;;3.50;1.60;;;;;;;34.65;15.69;101632.81;103284;1261;138862;-68
2024/04/11 10:29:37;;;;;;;3.40;1.70;;;;;;;34.34;15.62;101633.80;103584;1265;98845;-69
2024/04/11 10:32:06;;;;;;;2.10;1.30;;;;;;;33.72;15.72;101638.06;102782;1260;138663;-68
2024/04/11 10:34:35;;;;;;;3.90;1.70;;;;;;;33.35;16.37;101640.61;102923;1260;100609;-67
2024/04/11 10:37:07;;;;;;;4.90;1.60;;;;;;;33.20;16.62;101642.95;103078;1260;106437;-65
2024/04/11 10:39:36;;;;;;;9.10;2.10;;;;;;;32.84;16.52;101640.77;102415;1261;138600;-66
2024/04/11 10:42:07;;;;;;;7.20;5.50;;;;;;;32.59;16.78;101633.85;103904;1261;98536;-62
2024/04/11 10:44:34;;;;;;;6.00;2.30;;;;;;;32.36;16.66;101631.57;102584;1261;138610;-64
2024/04/11 10:47:07;;;;;;;4.20;1.30;;;;;;;32.10;17.18;101628.20;102769;1260;100474;-66
2024/04/11 10:49:37;;;;;;;4.00;1.40;;;;;;;31.92;17.14;101626.89;102637;1260;114401;-65
2024/04/11 10:52:10;;;;;;;2.70;1.30;;;;;;;31.49;17.30;101626.61;103958;1260;138218;-68
2024/04/11 10:54:39;;;;;;;4.00;1.40;;;;;;;31.07;17.39;101628.56;103461;1260;100532;-65
2024/04/11 10:57:13;;;;;;;3.80;1.40;;;;;;;30.70;17.73;101632.20;103878;1261;138747;-66
2024/04/11 10:59:50;;;;;;;4.60;1.30;;;;;;;30.49;17.73;101628.42;103998;1260;99285;-66
2024/04/11 11:02:19;;;;;;;6.60;1.60;;;;;;;30.18;18.13;101627.94;103987;1260;138668;-67
2024/04/11 11:04:50;;;;;;;4.70;1.70;;;;;;;29.93;18.21;101623.91;104042;1260;108844;-66
2024/04/11 11:07:20;;;;;;;4.90;1.80;;;;;;;29.50;18.25;101625.86;104068;1260;99546;-72
2024/04/11 11:09:51;;;;;;;4.90;1.70;;;;;;;29.17;18.80;101623.34;103388;1260;138208;-74
2024/04/11 11:12:19;;;;;;;3.50;1.60;;;;;;;28.95;19.00;101619.70;103000;1260;100663;-74
2024/04/11 11:14:46;;;;;;;4.60;1.70;;;;;;;28.72;19.13;101620.11;103986;1260;138608;-74
2024/04/11 11:17:17;;;;;;;4.10;1.60;;;;;;;28.47;19.60;101619.61;104025;1260;108439;-73